Etusivu
METAR-TAF:

METAR-TAF

Lentoasemat :

Hope, Brittiläinen Kolumbia, Kanada

Leveyspiiri: 49-22N, Pituuspiiri: 121-29W, korkeus merenpinnasta: 39 m

Tämänhetkinen sää

Tämä raportti tehtiin 13 minuuttia sitten, kello 18.17 UTC
tyyntä
Lämpötila 6°C
Kosteus 93%
Ilmanpaine 1020 hPa
Näkyvyys: 14.5 km
Hajanaisia pilviä 1300 ft:n korkeudessa
Hajonneita pilviä 2300 ft:n korkeudessa
Pilvistä 3100 ft:n korkeudessa
heikkoa sadetta

METAR: CYHE 121817Z AUTO 00000KT 9SM -RA SCT013 BKN023 OVC031 06/05 A3011 RMK SLP198

Aika: 10:30 (18:30 UTC)


TAF: puuttuu

Säähavainnot ja -ennusteet yli 4000 lentoasemalta (METAR- ja TAF-raportit).

Käytössä olevat sääasemat on merkitty karttaan keltaisilla ja punaisilla pisteillä.

Aseta hiiri pisteen päälle nähdäksesi sääaseman nimen.

Klikkaa sitten nähdäksesi säähavainnot ja -ennusteet.

Kartan vaihtaminen: klikkaa mustalla rastilla varustettuja vihreitä pisteitä, niin voit zoomata sisään; viivalla varustettua vihreää pistettä, niin voit zoomata ulos tai vihreitä nuolia, niin pääset viereisille kartoille.


METAR-TAF: